18分钟前
罗盘
风向 的 风向 000° 直升机
风: 17 千吨, 5 beaufort
0 500 1.500 3.000 5.000 8.000 10.000
垂直能见度
METAR EHMA 040155Z AUTO VRB17KT 0750 DZ VV000 05/05 Q0997

METAR定义 | 嵌入

24小时趋势

航班类别VFRLIFR
温度7 °C4 °C
风速30 千吨0 千吨
能见度10 公里+0 米

更多历史数据

下载我们的安卓应用程序

从你的主屏幕上轻松地访问你的航空天气。
只需一次付费,您就可以获得无广告的体验。

您会帮助我们保持Metar-Taf.com正常运行吗?
您的贡献有助于网站的进一步开发并支付费用。

没有更多广告

您是捐款5美元还是更多?然后,我们将永远不会再向您展示广告,这是我们永恒的感谢!
捐赠前先登录

METAR AWG-1

该字段位于荷兰中。

该报告是针对2021年12月4日 02:55, 当地时间上的AWG-1所做的。

机场观察

可变方向的风很小或没有风。

可见度为750 米。

垂直能见度为0 ft 没有观察到天花板。

当前天气为细雨。 温度为5 °C,阵风为-2 °C。 露点为5 °C,相对湿度为100%。 海平面上的气压为997 压力 (QNH)。

白天

今天,太阳从08:33升起,在16:19降落。 这适用于AWG-1,世界夏令时可能有所不同。 当地时间与世界标准时间之间的时差为+1 小时。 当前,没有夏令时有效。

公司介绍

我们没有关于这个机场的公司信息。

体会

到Vliegles.nl去找飞行课程,跳伞和其他飞行体验。 浏览页面,了解AWG-1附近所有可用的活动。 你也可以使用搜索功能来寻找你所在地附近的特定飞行课程、跳伞或其他飞行体验。

您是否要在网站上AWG-1飞行的天气? 阅读更多   自由!